Time;durP1;ratioP1;P1;durP2;ratioP2;P2;SDS_P1;SDS_P2;PMS_P1;PMS_P2;Temp;Humidity;BMP_temperature;BMP_pressure;BME280_temperature;BME280_humidity;BME280_pressure;Samples;Min_cycle;Max_cycle;Signal;HPM_P1;HPM_P2
2021/03/18 00:01:10;;;;;;;22.17;11.10;;;-1.00;99.90;;;;;;5092950;28;20020;-76
2021/03/18 00:03:37;;;;;;;16.13;10.15;;;-1.00;99.90;;;;;;5074838;28;20024;-76
2021/03/18 00:06:04;;;;;;;16.00;10.07;;;-1.00;99.90;;;;;;5074952;28;20048;-76
2021/03/18 00:08:30;;;;;;;15.85;9.60;;;-1.00;99.90;;;;;;5074980;28;20020;-76
2021/03/18 00:10:56;;;;;;;21.33;11.25;;;-1.00;99.90;;;;;;5074820;28;20029;-77
2021/03/18 00:13:24;;;;;;;19.35;10.70;;;-1.00;99.90;;;;;;5074669;28;20055;-76
2021/03/18 00:15:51;;;;;;;21.23;11.30;;;-1.00;99.90;;;;;;5074620;28;20024;-76
2021/03/18 00:18:18;;;;;;;17.48;10.63;;;-1.00;99.90;;;;;;5074698;28;20024;-76
2021/03/18 00:20:45;;;;;;;18.45;10.85;;;-1.00;99.90;;;;;;5074660;28;20052;-76
2021/03/18 00:23:12;;;;;;;20.55;11.07;;;-1.00;99.90;;;;;;5074715;28;20016;-76
2021/03/18 00:25:38;;;;;;;17.23;10.80;;;-1.00;99.90;;;;;;5074729;28;20128;-76
2021/03/18 00:28:05;;;;;;;17.98;10.30;;;-1.00;99.90;;;;;;5074956;28;20039;-76
2021/03/18 00:30:30;;;;;;;19.67;11.52;;;-1.10;99.90;;;;;;5074621;28;20082;-76
2021/03/18 00:32:56;;;;;;;16.45;10.48;;;-1.10;99.90;;;;;;5074586;28;20024;-76
2021/03/18 00:35:23;;;;;;;17.92;9.38;;;-1.10;99.90;;;;;;5074537;28;20076;-76
2021/03/18 00:37:50;;;;;;;18.77;11.05;;;-1.00;99.90;;;;;;5074489;28;20023;-76
2021/03/18 00:40:21;;;;;;;17.00;10.32;;;-1.00;99.90;;;;;;5074492;28;20046;-76
2021/03/18 00:42:57;;;;;;;17.52;10.13;;;-0.90;99.90;;;;;;5074582;28;20020;-76
2021/03/18 00:45:24;;;;;;;20.83;9.90;;;-0.80;99.90;;;;;;5074532;28;20028;-76
2021/03/18 00:47:50;;;;;;;14.95;9.60;;;-0.80;99.90;;;;;;5074507;28;20038;-76
2021/03/18 00:50:35;;;;;;;16.55;9.93;;;-0.70;99.90;;;;;;5074438;28;20028;-76
2021/03/18 00:53:01;;;;;;;14.73;9.35;;;-0.70;99.90;;;;;;5091162;28;20129;-76
2021/03/18 00:55:27;;;;;;;17.88;10.23;;;-0.70;99.90;;;;;;5074383;28;20040;-76
2021/03/18 00:57:53;;;;;;;17.35;9.85;;;-0.60;99.90;;;;;;5074003;28;20165;-76
2021/03/18 01:00:25;;;;;;;21.00;10.02;;;-0.60;99.90;;;;;;5077848;28;20044;-76
2021/03/18 01:02:52;;;;;;;19.13;9.95;;;-0.60;99.90;;;;;;5096142;28;20031;-76
2021/03/18 01:06:04;;;;;;;18.20;9.68;;;-0.60;99.90;;;;;;5077894;28;20113;-76
2021/03/18 01:08:30;;;;;;;15.95;8.75;;;-0.60;99.90;;;;;;5077278;28;20043;-76
2021/03/18 01:10:59;;;;;;;17.25;10.27;;;-0.60;99.90;;;;;;5077749;28;20118;-76
2021/03/18 01:13:26;;;;;;;19.45;9.70;;;-0.60;99.90;;;;;;5077750;28;20112;-77
2021/03/18 01:16:02;;;;;;;17.92;9.77;;;-0.60;99.90;;;;;;5077530;28;20055;-76
2021/03/18 01:18:36;;;;;;;20.42;10.30;;;-0.50;99.90;;;;;;5077568;28;20016;-76
2021/03/18 01:21:03;;;;;;;15.63;9.18;;;-0.50;99.90;;;;;;5077579;28;20066;-77
2021/03/18 01:23:28;;;;;;;13.70;8.82;;;-0.40;99.90;;;;;;5077369;28;20024;-76
2021/03/18 01:25:54;;;;;;;16.42;9.05;;;-0.30;99.90;;;;;;5077538;28;20027;-76
2021/03/18 01:28:19;;;;;;;15.90;9.80;;;-0.20;99.90;;;;;;5077354;28;20028;-76
2021/03/18 01:30:45;;;;;;;14.80;8.63;;;-0.10;99.90;;;;;;5077367;28;20039;-76
2021/03/18 01:33:11;;;;;;;16.80;8.38;;;0.00;99.90;;;;;;5077454;28;20026;-76
2021/03/18 01:35:36;;;;;;;14.93;8.27;;;0.10;99.90;;;;;;5077391;28;20115;-76
2021/03/18 01:38:02;;;;;;;13.02;8.55;;;0.10;99.90;;;;;;5077306;28;20020;-76
2021/03/18 01:40:31;;;;;;;13.80;8.32;;;0.20;99.90;;;;;;5077420;28;20024;-76
2021/03/18 01:42:57;;;;;;;17.13;8.07;;;0.20;99.90;;;;;;5077253;28;20024;-76
2021/03/18 01:45:23;;;;;;;13.27;7.95;;;0.30;99.90;;;;;;5077230;28;20020;-77
2021/03/18 01:47:52;;;;;;;12.50;8.38;;;0.30;99.90;;;;;;5077138;28;20024;-76
2021/03/18 01:50:21;;;;;;;12.27;7.78;;;0.30;99.90;;;;;;5077164;28;20170;-77
2021/03/18 01:52:47;;;;;;;14.18;8.13;;;0.20;99.90;;;;;;5077034;28;20024;-76
2021/03/18 01:55:19;;;;;;;15.30;8.98;;;0.20;99.90;;;;;;5077090;28;20028;-76
2021/03/18 01:57:46;;;;;;;14.35;8.35;;;0.20;99.90;;;;;;5076877;28;20040;-76
2021/03/18 02:00:13;;;;;;;14.10;8.10;;;0.20;99.90;;;;;;5095074;28;20024;-77
2021/03/18 02:02:39;;;;;;;13.93;7.97;;;0.20;99.90;;;;;;5076992;28;20017;-76
2021/03/18 02:05:05;;;;;;;16.13;8.30;;;0.30;99.90;;;;;;5076837;28;20508;-76
2021/03/18 02:07:31;;;;;;;13.95;8.52;;;0.30;99.90;;;;;;5094839;28;20027;-76
2021/03/18 02:09:56;;;;;;;13.30;8.50;;;0.30;99.90;;;;;;5094189;28;20469;-76
2021/03/18 02:12:22;;;;;;;13.50;8.98;;;0.40;99.90;;;;;;5076544;28;20025;-76
2021/03/18 02:14:48;;;;;;;14.05;8.65;;;0.40;99.90;;;;;;5076607;28;20035;-76
2021/03/18 02:17:22;;;;;;;12.88;7.95;;;0.40;99.90;;;;;;5076460;28;20016;-77
2021/03/18 02:20:13;;;;;;;12.38;7.80;;;0.30;99.90;;;;;;5076626;28;20558;-77
2021/03/18 02:22:57;;;;;;;13.68;8.35;;;0.40;99.90;;;;;;5093407;28;20431;-77
2021/03/18 02:25:57;;;;;;;14.93;7.80;;;0.40;99.90;;;;;;5093372;28;20031;-76
2021/03/18 02:28:35;;;;;;;15.82;8.18;;;0.40;99.90;;;;;;5053511;28;20388;-76
2021/03/18 02:31:06;;;;;;;14.73;8.65;;;0.30;99.90;;;;;;5093301;28;20489;-76
2021/03/18 02:33:59;;;;;;;13.85;8.40;;;0.30;99.90;;;;;;5076333;28;20042;-76
2021/03/18 02:36:34;;;;;;;14.15;8.40;;;0.20;99.90;;;;;;5094484;28;20028;-77
2021/03/18 02:39:04;;;;;;;13.75;7.78;;;0.20;99.90;;;;;;5094515;28;20020;-76
2021/03/18 02:41:44;;;;;;;12.70;8.30;;;0.20;99.90;;;;;;5076098;28;20174;-76
2021/03/18 02:44:13;;;;;;;12.70;7.97;;;0.20;99.90;;;;;;5076201;28;20024;-76
2021/03/18 02:46:43;;;;;;;15.55;9.02;;;0.30;99.90;;;;;;5075995;28;20031;-76
2021/03/18 02:49:11;;;;;;;12.98;8.20;;;0.30;99.90;;;;;;5076794;28;20024;-76
2021/03/18 02:51:39;;;;;;;15.88;8.43;;;0.30;99.90;;;;;;5075822;28;20028;-76
2021/03/18 02:54:10;;;;;;;15.45;8.32;;;0.30;99.90;;;;;;5075709;28;20055;-76
2021/03/18 02:56:43;;;;;;;14.38;7.90;;;0.30;99.90;;;;;;5075805;28;20020;-76
2021/03/18 02:59:11;;;;;;;16.25;9.10;;;0.30;99.90;;;;;;5075619;28;20036;-76
2021/03/18 03:01:41;;;;;;;16.38;9.02;;;0.30;99.90;;;;;;5075679;28;20111;-77
2021/03/18 03:04:07;;;;;;;15.90;8.77;;;0.30;99.90;;;;;;5075558;28;20024;-76
2021/03/18 03:06:34;;;;;;;14.13;8.75;;;0.40;99.90;;;;;;5075554;28;20031;-76
2021/03/18 03:09:01;;;;;;;16.38;9.23;;;0.40;99.90;;;;;;5075484;28;20028;-77
2021/03/18 03:11:28;;;;;;;15.40;8.80;;;0.40;99.90;;;;;;5075450;28;20535;-77
2021/03/18 03:13:55;;;;;;;16.65;8.68;;;0.50;99.90;;;;;;5075344;28;20028;-77
2021/03/18 03:16:23;;;;;;;16.23;9.02;;;0.50;99.90;;;;;;5075417;28;20389;-76
2021/03/18 03:18:50;;;;;;;16.77;9.65;;;0.50;99.90;;;;;;5075218;28;20162;-76
2021/03/18 03:21:18;;;;;;;15.77;8.68;;;0.50;99.90;;;;;;5075033;28;20058;-76
2021/03/18 03:23:45;;;;;;;16.38;9.65;;;0.50;99.90;;;;;;5077529;28;20023;-76
2021/03/18 03:26:14;;;;;;;13.63;8.52;;;0.50;99.90;;;;;;5077223;28;20110;-77
2021/03/18 03:28:40;;;;;;;17.65;8.88;;;0.50;99.90;;;;;;5075404;28;20027;-76
2021/03/18 03:31:06;;;;;;;17.05;9.40;;;0.50;99.90;;;;;;5075667;28;20047;-76
2021/03/18 03:33:32;;;;;;;18.83;9.43;;;0.50;99.90;;;;;;5075686;28;20477;-76
2021/03/18 03:35:58;;;;;;;14.43;8.75;;;0.50;99.90;;;;;;5075443;28;20077;-76
2021/03/18 03:38:24;;;;;;;17.58;9.20;;;0.50;99.90;;;;;;5075171;28;20020;-76
2021/03/18 03:40:51;;;;;;;16.23;9.50;;;0.60;99.90;;;;;;5075148;28;20051;-76
2021/03/18 03:43:17;;;;;;;15.38;8.35;;;0.60;99.90;;;;;;5075286;28;20107;-76
2021/03/18 03:45:44;;;;;;;15.48;9.52;;;0.60;99.90;;;;;;5093435;28;20056;-76
2021/03/18 03:48:10;;;;;;;19.80;9.98;;;0.60;99.90;;;;;;5075123;28;20038;-76
2021/03/18 03:50:36;;;;;;;17.80;9.07;;;0.60;99.90;;;;;;5075061;28;20114;-77
2021/03/18 03:53:20;;;;;;;18.00;9.98;;;0.60;99.90;;;;;;5074988;28;20024;-76
2021/03/18 03:55:57;;;;;;;17.65;9.45;;;0.60;99.90;;;;;;5091747;28;20034;-76
2021/03/18 03:58:45;;;;;;;17.80;9.70;;;0.70;99.90;;;;;;5091633;28;20546;-77
2021/03/18 04:01:42;;;;;;;22.83;10.68;;;0.70;99.90;;;;;;5074871;28;20120;-76
2021/03/18 04:04:25;;;;;;;22.63;10.30;;;0.70;99.90;;;;;;5075101;28;20028;-76
2021/03/18 04:07:13;;;;;;;19.77;10.52;;;0.70;99.90;;;;;;5074798;28;20024;-76
2021/03/18 04:09:39;;;;;;;19.67;10.95;;;0.70;99.90;;;;;;5074790;28;20028;-77
2021/03/18 04:12:08;;;;;;;17.75;9.40;;;0.70;99.90;;;;;;5074748;28;20134;-76
2021/03/18 04:14:37;;;;;;;18.85;10.18;;;0.80;99.90;;;;;;5074514;28;20059;-76
2021/03/18 04:17:07;;;;;;;20.02;10.30;;;0.80;99.90;;;;;;5074720;28;20119;-77
2021/03/18 04:19:33;;;;;;;18.45;10.80;;;0.70;99.90;;;;;;5074644;28;20158;-77
2021/03/18 04:22:00;;;;;;;20.55;10.07;;;0.70;99.90;;;;;;5074637;28;20115;-77
2021/03/18 04:24:26;;;;;;;20.55;10.48;;;0.70;99.90;;;;;;5074597;28;20073;-76
2021/03/18 04:26:54;;;;;;;25.30;13.00;;;0.70;99.90;;;;;;5074665;28;20026;-77
2021/03/18 04:29:20;;;;;;;18.48;10.35;;;0.70;99.90;;;;;;5077072;28;20031;-77
2021/03/18 04:31:47;;;;;;;20.85;11.40;;;0.70;99.90;;;;;;5076130;28;20028;-77
2021/03/18 04:34:15;;;;;;;22.42;10.93;;;0.70;99.90;;;;;;5076405;28;20024;-77
2021/03/18 04:36:43;;;;;;;21.90;12.20;;;0.70;99.90;;;;;;5078260;28;20073;-76
2021/03/18 04:39:09;;;;;;;23.00;11.40;;;0.70;99.90;;;;;;5078461;28;20024;-77
2021/03/18 04:41:35;;;;;;;23.98;11.43;;;0.70;99.90;;;;;;5078260;28;20024;-76
2021/03/18 04:44:01;;;;;;;22.30;12.07;;;0.60;99.90;;;;;;5078312;28;20024;-76
2021/03/18 04:46:30;;;;;;;24.13;11.57;;;0.60;99.90;;;;;;5078244;28;20538;-76
2021/03/18 04:48:58;;;;;;;25.10;13.48;;;0.50;99.90;;;;;;5078181;28;20042;-76
2021/03/18 04:51:24;;;;;;;22.35;11.45;;;0.50;99.90;;;;;;5078344;28;20085;-76
2021/03/18 04:53:50;;;;;;;23.05;11.73;;;0.40;99.90;;;;;;5078089;28;20062;-77
2021/03/18 04:56:19;;;;;;;25.05;12.70;;;0.40;99.90;;;;;;5077972;28;20043;-77
2021/03/18 04:58:45;;;;;;;22.77;11.98;;;0.40;99.90;;;;;;5098353;23;20485;-73
2021/03/18 05:01:12;;;;;;;21.88;12.00;;;0.30;99.90;;;;;;5077779;28;20020;-73
2021/03/18 05:03:39;;;;;;;23.35;11.88;;;0.40;99.90;;;;;;5096229;28;20036;-73
2021/03/18 05:06:07;;;;;;;25.60;12.90;;;0.40;99.90;;;;;;5077983;28;20024;-73
2021/03/18 05:08:34;;;;;;;23.73;11.98;;;0.30;99.90;;;;;;5077901;28;20020;-74
2021/03/18 05:11:01;;;;;;;24.23;13.20;;;0.30;99.90;;;;;;5077952;28;20366;-74
2021/03/18 05:13:29;;;;;;;26.67;12.70;;;0.30;99.90;;;;;;5077777;28;20025;-73
2021/03/18 05:15:57;;;;;;;22.25;11.38;;;0.30;99.90;;;;;;5077689;28;20058;-73
2021/03/18 05:18:24;;;;;;;28.70;13.18;;;0.30;99.90;;;;;;5077676;28;20476;-73
2021/03/18 05:20:50;;;;;;;30.00;13.10;;;0.30;99.90;;;;;;5077754;28;20069;-74
2021/03/18 05:23:17;;;;;;;25.83;13.05;;;0.20;99.90;;;;;;5077678;28;20447;-73
2021/03/18 05:25:45;;;;;;;26.40;12.90;;;0.30;99.90;;;;;;5077642;28;20078;-74
2021/03/18 05:28:11;;;;;;;27.52;13.27;;;0.30;99.90;;;;;;5077591;28;20028;-73
2021/03/18 05:30:37;;;;;;;30.48;13.93;;;0.30;99.90;;;;;;5077517;28;20024;-73
2021/03/18 05:33:04;;;;;;;28.73;12.93;;;0.30;99.90;;;;;;5077419;28;20102;-73
2021/03/18 05:35:31;;;;;;;28.80;13.85;;;0.30;99.90;;;;;;5077271;28;20028;-73
2021/03/18 05:37:56;;;;;;;28.23;13.73;;;0.30;99.90;;;;;;5077305;28;20020;-72
2021/03/18 05:40:22;;;;;;;29.45;13.95;;;0.40;99.90;;;;;;5077413;28;20454;-73
2021/03/18 05:42:49;;;;;;;30.52;14.20;;;0.40;99.90;;;;;;5077785;28;20024;-74
2021/03/18 05:45:16;;;;;;;33.50;18.30;;;0.40;99.90;;;;;;5077531;28;20539;-74
2021/03/18 05:47:42;;;;;;;109.68;59.13;;;0.40;99.90;;;;;;5077104;28;20023;-74
2021/03/18 05:50:14;;;;;;;119.78;58.80;;;0.40;99.90;;;;;;5077137;28;20063;-74
2021/03/18 05:52:40;;;;;;;165.05;84.30;;;0.40;99.90;;;;;;5077150;28;20031;-74
2021/03/18 05:55:07;;;;;;;56.55;28.52;;;0.50;99.90;;;;;;5076841;28;20035;-74
2021/03/18 05:57:34;;;;;;;136.75;72.35;;;0.50;99.90;;;;;;5076755;28;20024;-74
2021/03/18 06:00:00;;;;;;;42.45;20.65;;;0.50;99.90;;;;;;5077163;28;20020;-74
2021/03/18 06:02:26;;;;;;;185.10;92.05;;;0.60;99.90;;;;;;5076932;28;20024;-73
2021/03/18 06:04:53;;;;;;;107.45;53.47;;;0.60;99.90;;;;;;5076806;28;20053;-74
2021/03/18 06:07:18;;;;;;;37.08;20.02;;;0.60;99.90;;;;;;5076947;28;20481;-74
2021/03/18 06:09:44;;;;;;;218.40;97.03;;;0.70;99.90;;;;;;5076822;28;20039;-74
2021/03/18 06:12:10;;;;;;;177.23;83.90;;;0.70;99.90;;;;;;5076660;28;20027;-73
2021/03/18 06:14:36;;;;;;;79.72;42.72;;;0.80;99.90;;;;;;5076606;28;20028;-74
2021/03/18 06:17:03;;;;;;;55.60;28.00;;;0.90;99.90;;;;;;5076768;28;20449;-74
2021/03/18 06:19:29;;;;;;;45.28;24.63;;;1.00;99.90;;;;;;5076547;28;20058;-74
2021/03/18 06:21:58;;;;;;;41.55;19.75;;;1.00;99.90;;;;;;5076488;28;20062;-74
2021/03/18 06:24:28;;;;;;;56.00;29.77;;;1.00;99.90;;;;;;5076517;28;20034;-73
2021/03/18 06:26:55;;;;;;;64.20;32.13;;;1.10;99.90;;;;;;5076449;28;20027;-74
2021/03/18 06:29:29;;;;;;;41.35;22.88;;;1.10;99.90;;;;;;5076345;28;20404;-74
2021/03/18 06:31:56;;;;;;;31.08;14.95;;;1.00;99.90;;;;;;5076315;28;20115;-74
2021/03/18 06:34:42;;;;;;;34.92;17.30;;;1.10;99.90;;;;;;5076120;28;20024;-74
2021/03/18 06:37:40;;;;;;;36.25;17.60;;;1.00;99.90;;;;;;5076173;28;20024;-74
2021/03/18 06:40:14;;;;;;;36.05;20.35;;;1.10;99.90;;;;;;5076161;28;20119;-74
2021/03/18 06:42:43;;;;;;;35.03;16.88;;;1.20;99.90;;;;;;5075997;28;20024;-74
2021/03/18 06:45:15;;;;;;;54.05;30.77;;;1.30;99.90;;;;;;5080487;28;20046;-74
2021/03/18 06:47:54;;;;;;;61.15;34.10;;;1.40;99.90;;;;;;5087387;28;20397;-74
2021/03/18 06:50:25;;;;;;;37.63;21.77;;;1.70;99.90;;;;;;5086554;28;20024;-74
2021/03/18 06:52:51;;;;;;;30.30;18.25;;;2.00;99.90;;;;;;5082499;28;20024;-74
2021/03/18 06:55:29;;;;;;;30.40;17.65;;;2.30;99.90;;;;;;5081010;28;20036;-74
2021/03/18 06:58:18;;;;;;;29.45;14.95;;;2.50;99.90;;;;;;5077922;28;20042;-74
2021/03/18 07:00:47;;;;;;;28.80;15.18;;;2.70;99.90;;;;;;5077440;28;20497;-75
2021/03/18 07:03:25;;;;;;;29.50;14.48;;;2.90;99.90;;;;;;5076582;28;20024;-75
2021/03/18 07:05:50;;;;;;;30.00;13.60;;;3.10;99.90;;;;;;5076169;28;20496;-75
2021/03/18 07:08:25;;;;;;;25.92;14.07;;;3.20;99.90;;;;;;5076067;28;20034;-75
2021/03/18 07:10:51;;;;;;;28.10;14.48;;;3.40;99.90;;;;;;5077474;28;20062;-75
2021/03/18 07:13:23;;;;;;;27.55;14.20;;;3.70;99.90;;;;;;5075944;28;20024;-76
2021/03/18 07:15:51;;;;;;;25.75;14.05;;;4.10;99.90;;;;;;5075842;28;20373;-76
2021/03/18 07:18:17;;;;;;;24.92;13.95;;;4.50;99.90;;;;;;5075733;28;20020;-76
2021/03/18 07:21:04;;;;;;;23.52;13.48;;;4.90;99.90;;;;;;5075438;28;20389;-75
2021/03/18 07:23:44;;;;;;;26.58;14.77;;;5.40;99.90;;;;;;5062365;28;20397;-76
2021/03/18 07:26:19;;;;;;;25.73;13.98;;;5.70;99.90;;;;;;5075351;28;20047;-75
2021/03/18 07:28:50;;;;;;;26.83;14.52;;;6.00;99.90;;;;;;5075378;28;20027;-75
2021/03/18 07:31:17;;;;;;;27.00;14.57;;;6.20;99.90;;;;;;5075294;28;20031;-76
2021/03/18 07:33:44;;;;;;;27.20;14.45;;;6.40;99.90;;;;;;5093424;28;20415;-75
2021/03/18 07:36:11;;;;;;;25.83;15.05;;;6.40;99.90;;;;;;5075129;28;20170;-75
2021/03/18 07:38:38;;;;;;;24.83;13.57;;;6.00;99.90;;;;;;5075201;28;20522;-75
2021/03/18 07:41:10;;;;;;;25.17;13.95;;;5.80;99.90;;;;;;5075100;28;20031;-75
2021/03/18 07:43:37;;;;;;;18.63;11.93;;;5.70;99.90;;;;;;5075242;28;20485;-75
2021/03/18 07:46:04;;;;;;;27.00;15.95;;;5.70;99.90;;;;;;5075533;28;20161;-75
2021/03/18 07:48:33;;;;;;;26.83;14.45;;;5.50;99.90;;;;;;5075811;28;20023;-75
2021/03/18 07:51:01;;;;;;;26.00;15.13;;;5.30;99.90;;;;;;5075342;28;20554;-76
2021/03/18 07:53:28;;;;;;;27.33;14.80;;;5.20;99.90;;;;;;5075549;28;20028;-76
2021/03/18 07:55:55;;;;;;;25.02;14.93;;;5.20;99.90;;;;;;5075736;28;20023;-75
2021/03/18 07:58:41;;;;;;;27.38;15.02;;;5.20;99.90;;;;;;5075585;28;20401;-75
2021/03/18 08:01:07;;;;;;;28.05;14.57;;;5.60;99.90;;;;;;5075421;28;20027;-75
2021/03/18 08:03:36;;;;;;;24.85;14.23;;;5.50;99.90;;;;;;5075837;28;20034;-75
2021/03/18 08:06:02;;;;;;;27.77;15.00;;;5.70;99.90;;;;;;5075135;28;20020;-75
2021/03/18 08:08:33;;;;;;;27.33;14.07;;;5.80;99.90;;;;;;5076478;28;20546;-75
2021/03/18 08:11:15;;;;;;;28.83;14.53;;;5.90;99.90;;;;;;5079088;28;20430;-74
2021/03/18 08:13:44;;;;;;;28.50;15.45;;;5.90;99.90;;;;;;5079036;28;20031;-75
2021/03/18 08:16:29;;;;;;;27.95;14.65;;;5.90;99.90;;;;;;5079693;28;20069;-75
2021/03/18 08:18:56;;;;;;;21.95;13.35;;;6.10;99.90;;;;;;5079016;28;20024;-74
2021/03/18 08:21:36;;;;;;;26.60;15.70;;;6.20;99.90;;;;;;5079357;28;20047;-76
2021/03/18 08:24:04;;;;;;;25.02;15.23;;;6.20;99.90;;;;;;5079432;28;20048;-75
2021/03/18 08:26:43;;;;;;;23.48;14.13;;;6.20;99.90;;;;;;5079240;28;20485;-74
2021/03/18 08:29:15;;;;;;;28.40;15.43;;;6.10;99.90;;;;;;5079788;28;20431;-75
2021/03/18 08:31:56;;;;;;;19.63;11.23;;;6.40;99.90;;;;;;5079467;28;20030;-75
2021/03/18 08:34:45;;;;;;;25.88;14.27;;;6.70;99.90;;;;;;5078877;28;20032;-75
2021/03/18 08:37:12;;;;;;;23.52;13.07;;;6.80;99.90;;;;;;5079340;28;20058;-75
2021/03/18 08:39:48;;;;;;;24.58;14.68;;;6.70;99.90;;;;;;5079355;28;20035;-74
2021/03/18 08:42:29;;;;;;;23.50;15.05;;;7.10;99.90;;;;;;5078748;28;20030;-74
2021/03/18 08:45:28;;;;;;;27.05;15.13;;;7.60;99.90;;;;;;5078366;28;20097;-75
2021/03/18 08:47:57;;;;;;;24.95;13.65;;;7.90;99.90;;;;;;5082818;28;20077;-74
2021/03/18 08:50:25;;;;;;;24.40;14.55;;;7.90;99.90;;;;;;5078760;28;20024;-75
2021/03/18 08:52:56;;;;;;;23.88;14.80;;;8.20;99.90;;;;;;5078355;28;20024;-74
2021/03/18 08:55:35;;;;;;;21.90;13.50;;;8.30;99.90;;;;;;5078097;28;20035;-74
2021/03/18 08:58:02;;;;;;;20.65;14.13;;;8.90;99.90;;;;;;5077864;28;20028;-74
2021/03/18 09:00:27;;;;;;;21.08;13.70;;;9.30;99.20;;;;;;5078077;28;20070;-74
2021/03/18 09:02:53;;;;;;;21.00;14.30;;;9.30;96.60;;;;;;5096205;28;20032;-74
2021/03/18 09:05:20;;;;;;;22.73;14.10;;;8.60;97.10;;;;;;5078299;28;20031;-75
2021/03/18 09:07:50;;;;;;;22.48;14.77;;;8.70;97.60;;;;;;5077833;28;20024;-74
2021/03/18 09:10:21;;;;;;;21.45;13.73;;;8.50;96.90;;;;;;5077886;28;20023;-74
2021/03/18 09:13:02;;;;;;;27.40;16.17;;;8.70;96.90;;;;;;5077829;28;20020;-73
2021/03/18 09:15:37;;;;;;;22.10;14.35;;;8.80;97.00;;;;;;5077863;28;20024;-74
2021/03/18 09:18:23;;;;;;;19.95;13.32;;;9.10;93.80;;;;;;5078610;28;20027;-74
2021/03/18 09:21:01;;;;;;;21.13;13.63;;;10.10;91.90;;;;;;5077811;28;20020;-74
2021/03/18 09:23:29;;;;;;;20.42;12.35;;;11.70;81.60;;;;;;5077745;28;20031;-75
2021/03/18 09:26:01;;;;;;;20.83;14.32;;;12.70;72.50;;;;;;5077686;28;20127;-75
2021/03/18 09:28:32;;;;;;;17.37;12.80;;;12.80;70.90;;;;;;5077571;28;20075;-75
2021/03/18 09:30:58;;;;;;;21.63;14.30;;;13.40;66.50;;;;;;5077632;28;20507;-75
2021/03/18 09:33:30;;;;;;;19.77;12.85;;;13.10;66.00;;;;;;5077669;28;20106;-75
2021/03/18 09:35:58;;;;;;;20.55;13.65;;;12.80;65.10;;;;;;5077530;28;20020;-74
2021/03/18 09:38:32;;;;;;;18.75;12.73;;;11.80;67.60;;;;;;5077369;28;20477;-75
2021/03/18 09:40:59;;;;;;;17.80;13.02;;;11.20;70.00;;;;;;5077572;28;20020;-75
2021/03/18 09:43:27;;;;;;;18.60;12.05;;;10.40;72.50;;;;;;5077727;28;20572;-75
2021/03/18 09:46:04;;;;;;;16.65;11.07;;;9.90;74.70;;;;;;5077535;28;20512;-75
2021/03/18 09:48:37;;;;;;;15.10;10.65;;;9.60;75.30;;;;;;5077245;28;20028;-75
2021/03/18 09:51:05;;;;;;;;;;;9.40;74.40;;;;;;5077749;28;20024;-75
2021/03/18 09:53:31;;;;;;;14.23;9.70;;;9.30;76.30;;;;;;5077318;28;19904;-75
2021/03/18 09:56:05;;;;;;;13.55;9.80;;;9.30;76.50;;;;;;5077291;28;20024;-75
2021/03/18 09:58:30;;;;;;;15.05;9.93;;;9.40;77.10;;;;;;5076956;28;20039;-75
2021/03/18 10:00:56;;;;;;;12.60;9.00;;;9.40;74.10;;;;;;5077158;28;20016;-75
2021/03/18 10:03:22;;;;;;;12.68;8.73;;;9.40;74.40;;;;;;5077190;28;20046;-75
2021/03/18 10:05:47;;;;;;;11.52;8.00;;;9.30;73.30;;;;;;5077153;28;20024;-75
2021/03/18 10:08:13;;;;;;;13.70;9.40;;;9.40;73.10;;;;;;5077155;28;20024;-74
2021/03/18 10:10:39;;;;;;;13.65;8.88;;;9.20;72.20;;;;;;5076954;28;20028;-74
2021/03/18 10:13:05;;;;;;;13.50;9.10;;;9.10;74.10;;;;;;5076799;28;20035;-74
2021/03/18 10:15:31;;;;;;;16.55;10.75;;;9.00;75.70;;;;;;5076762;28;20035;-75
2021/03/18 10:17:58;;;;;;;16.60;10.50;;;8.80;77.30;;;;;;5076940;28;20020;-74
2021/03/18 10:20:35;;;;;;;16.48;10.45;;;8.80;78.60;;;;;;5076943;28;20020;-74
2021/03/18 10:23:11;;;;;;;15.95;10.23;;;8.50;79.20;;;;;;5076801;28;20034;-74
2021/03/18 10:25:39;;;;;;;16.65;10.95;;;8.40;80.50;;;;;;5076701;28;20414;-74
2021/03/18 10:28:11;;;;;;;15.90;9.88;;;8.40;82.40;;;;;;5076997;28;20393;-74
2021/03/18 10:30:41;;;;;;;20.92;12.05;;;8.70;82.90;;;;;;5076082;28;20108;-75
2021/03/18 10:33:17;;;;;;;17.67;12.77;;;8.90;84.50;;;;;;5076154;28;20076;-74
2021/03/18 10:35:45;;;;;;;17.58;10.75;;;9.00;84.10;;;;;;5076546;28;20024;-74
2021/03/18 10:38:15;;;;;;;15.82;10.90;;;9.00;83.10;;;;;;5076264;28;20023;-74
2021/03/18 10:40:48;;;;;;;12.15;8.93;;;9.20;80.10;;;;;;5076145;28;20020;-74
2021/03/18 10:43:31;;;;;;;11.10;7.38;;;9.40;75.10;;;;;;5076198;28;20023;-74
2021/03/18 10:46:01;;;;;;;12.13;7.57;;;9.50;71.60;;;;;;5076269;28;20024;-74
2021/03/18 10:48:29;;;;;;;12.65;8.48;;;9.40;71.70;;;;;;5076258;28;20074;-74
2021/03/18 10:51:05;;;;;;;11.30;7.45;;;10.10;73.90;;;;;;5076030;28;20082;-74
2021/03/18 10:53:34;;;;;;;11.88;7.93;;;11.50;64.70;;;;;;5076515;28;20020;-74
2021/03/18 10:56:01;;;;;;;12.32;8.13;;;11.80;63.00;;;;;;5075912;28;20032;-75
2021/03/18 10:58:27;;;;;;;13.48;8.23;;;11.90;62.70;;;;;;5077144;28;20088;-75
2021/03/18 11:00:59;;;;;;;12.32;7.97;;;12.00;64.70;;;;;;5076081;28;20016;-75
2021/03/18 11:03:30;;;;;;;9.30;6.45;;;12.10;63.60;;;;;;5094218;28;20020;-74
2021/03/18 11:06:12;;;;;;;9.95;6.93;;;11.90;58.90;;;;;;5075928;28;20048;-74
2021/03/18 11:08:42;;;;;;;8.82;6.57;;;11.70;61.00;;;;;;5076401;28;20112;-75
2021/03/18 11:11:14;;;;;;;9.38;6.18;;;14.20;55.00;;;;;;5076520;28;20024;-74
2021/03/18 11:13:42;;;;;;;11.00;6.80;;;19.00;45.50;;;;;;5076447;28;20028;-75
2021/03/18 11:16:10;;;;;;;8.30;6.95;;;22.90;37.00;;;;;;5075508;28;20028;-75
2021/03/18 11:18:45;;;;;;;8.82;6.82;;;26.20;29.40;;;;;;5075615;28;20046;-75
2021/03/18 11:21:26;;;;;;;6.90;5.70;;;28.20;27.50;;;;;;5075814;28;20493;-76
2021/03/18 11:23:54;;;;;;;6.60;5.60;;;30.10;25.30;;;;;;5075842;28;20024;-74
2021/03/18 11:26:25;;;;;;;6.65;5.85;;;32.70;22.30;;;;;;5077433;28;20107;-73
2021/03/18 11:29:01;;;;;;;6.30;5.35;;;33.50;22.50;;;;;;5078603;28;20026;-76
2021/03/18 11:31:29;;;;;;;6.72;6.13;;;32.80;22.00;;;;;;5080321;28;20020;-76
2021/03/18 11:33:55;;;;;;;5.65;5.13;;;29.80;22.10;;;;;;5080106;28;20036;-76
2021/03/18 11:36:22;;;;;;;5.88;5.18;;;27.60;23.50;;;;;;5078689;28;20057;-76
2021/03/18 11:38:49;;;;;;;6.22;4.93;;;29.60;23.20;;;;;;5085432;28;20016;-76
2021/03/18 11:41:14;;;;;;;5.40;4.90;;;31.30;22.40;;;;;;5088688;28;20084;-73
2021/03/18 11:43:41;;;;;;;7.07;6.38;;;31.70;21.70;;;;;;5088949;28;20012;-73
2021/03/18 11:46:07;;;;;;;7.32;6.60;;;32.70;20.80;;;;;;5086858;28;20469;-73
2021/03/18 11:48:33;;;;;;;6.30;5.05;;;31.50;21.80;;;;;;5081818;28;20028;-76
2021/03/18 11:50:59;;;;;;;6.13;5.50;;;30.20;22.50;;;;;;5080237;28;20077;-76
2021/03/18 11:53:25;;;;;;;4.75;4.25;;;28.40;22.50;;;;;;5076077;28;20485;-76
2021/03/18 11:55:52;;;;;;;5.03;4.40;;;27.80;22.40;;;;;;5075721;28;20120;-76
2021/03/18 11:58:18;;;;;;;7.63;6.65;;;28.80;22.60;;;;;;5075090;28;20028;-76
2021/03/18 12:00:44;;;;;;;6.78;6.05;;;28.00;22.60;;;;;;5075452;28;20110;-76
2021/03/18 12:03:10;;;;;;;6.63;5.13;;;27.60;22.50;;;;;;5075222;28;20489;-76
2021/03/18 12:05:38;;;;;;;5.28;4.78;;;28.10;22.90;;;;;;5075017;28;20020;-76
2021/03/18 12:08:04;;;;;;;7.70;6.45;;;29.40;22.70;;;;;;5075082;28;20024;-74
2021/03/18 12:10:30;;;;;;;7.28;6.20;;;28.90;21.70;;;;;;5075480;28;20085;-75
2021/03/18 12:12:56;;;;;;;8.07;7.20;;;24.50;25.80;;;;;;5074995;28;20035;-76
2021/03/18 12:15:22;;;;;;;8.35;7.40;;;21.00;29.90;;;;;;5092877;28;20032;-76
2021/03/18 12:17:48;;;;;;;8.63;7.53;;;18.20;34.50;;;;;;5074959;28;20024;-76
2021/03/18 12:20:17;;;;;;;12.77;8.23;;;16.10;39.10;;;;;;5074826;28;20028;-75
2021/03/18 12:22:44;;;;;;;9.32;7.10;;;14.40;43.20;;;;;;5074865;28;20028;-75
2021/03/18 12:25:14;;;;;;;9.57;7.13;;;13.20;46.20;;;;;;5074633;28;20384;-75
2021/03/18 12:27:40;;;;;;;10.73;7.43;;;12.50;47.80;;;;;;5075134;28;20359;-75
2021/03/18 12:30:07;;;;;;;11.18;6.72;;;11.90;49.30;;;;;;5074631;28;20024;-76
2021/03/18 12:32:33;;;;;;;9.50;6.70;;;11.40;49.80;;;;;;5074704;28;20062;-75
2021/03/18 12:34:58;;;;;;;8.50;6.95;;;11.10;51.80;;;;;;5074668;28;20051;-75
2021/03/18 12:37:24;;;;;;;9.02;6.60;;;10.80;54.00;;;;;;5074619;28;20389;-75
2021/03/18 12:39:50;;;;;;;8.32;6.00;;;10.70;55.20;;;;;;5074698;28;20024;-75
2021/03/18 12:42:15;;;;;;;8.63;5.75;;;10.50;54.60;;;;;;5074714;28;20020;-75
2021/03/18 12:44:42;;;;;;;7.85;6.05;;;10.70;53.40;;;;;;5074795;28;20024;-75
2021/03/18 12:47:08;;;;;;;6.95;4.97;;;11.20;52.00;;;;;;5074675;28;20024;-74
2021/03/18 12:49:35;;;;;;;8.90;4.95;;;12.50;50.20;;;;;;5074673;28;20031;-75
2021/03/18 12:52:02;;;;;;;6.35;4.88;;;14.60;44.60;;;;;;5074496;28;20398;-75
2021/03/18 12:54:28;;;;;;;7.15;4.60;;;17.40;39.40;;;;;;5075092;28;20174;-75